sensor_id;sensor_type;location;lat;lon;timestamp;P1;durP1;ratioP1;P2;durP2;ratioP2
59189;SDS011;50749;51.636;4.948;2023-02-28T00:00:50;2.50;;;1.15;;
59189;SDS011;50749;51.636;4.948;2023-02-28T00:03:18;3.17;;;1.00;;
59189;SDS011;50749;51.636;4.948;2023-02-28T00:05:44;2.17;;;1.10;;
59189;SDS011;50749;51.636;4.948;2023-02-28T00:08:09;2.45;;;1.42;;
59189;SDS011;50749;51.636;4.948;2023-02-28T00:10:35;3.33;;;1.30;;
59189;SDS011;50749;51.636;4.948;2023-02-28T00:13:03;2.05;;;1.00;;
59189;SDS011;50749;51.636;4.948;2023-02-28T00:15:31;2.10;;;1.20;;
59189;SDS011;50749;51.636;4.948;2023-02-28T00:17:57;2.17;;;1.10;;
59189;SDS011;50749;51.636;4.948;2023-02-28T00:20:23;2.35;;;1.00;;
59189;SDS011;50749;51.636;4.948;2023-02-28T00:22:50;3.25;;;1.10;;
59189;SDS011;50749;51.636;4.948;2023-02-28T00:25:19;1.52;;;0.95;;
59189;SDS011;50749;51.636;4.948;2023-02-28T00:27:47;1.95;;;1.10;;
59189;SDS011;50749;51.636;4.948;2023-02-28T00:30:15;3.45;;;1.20;;
59189;SDS011;50749;51.636;4.948;2023-02-28T00:32:42;3.25;;;1.30;;
59189;SDS011;50749;51.636;4.948;2023-02-28T00:35:09;1.67;;;1.10;;
59189;SDS011;50749;51.636;4.948;2023-02-28T00:37:35;2.40;;;1.20;;
59189;SDS011;50749;51.636;4.948;2023-02-28T00:40:02;2.08;;;1.17;;
59189;SDS011;50749;51.636;4.948;2023-02-28T00:42:30;3.15;;;1.10;;
59189;SDS011;50749;51.636;4.948;2023-02-28T00:44:56;2.40;;;0.98;;
59189;SDS011;50749;51.636;4.948;2023-02-28T00:47:21;1.38;;;0.90;;
59189;SDS011;50749;51.636;4.948;2023-02-28T00:49:47;1.88;;;1.08;;
59189;SDS011;50749;51.636;4.948;2023-02-28T00:52:13;1.58;;;1.05;;
59189;SDS011;50749;51.636;4.948;2023-02-28T00:54:39;3.35;;;0.93;;
59189;SDS011;50749;51.636;4.948;2023-02-28T00:57:05;2.50;;;1.17;;
59189;SDS011;50749;51.636;4.948;2023-02-28T00:59:31;2.90;;;0.82;;
59189;SDS011;50749;51.636;4.948;2023-02-28T01:01:57;1.40;;;0.90;;
59189;SDS011;50749;51.636;4.948;2023-02-28T01:04:23;2.58;;;1.10;;
59189;SDS011;50749;51.636;4.948;2023-02-28T01:06:48;2.55;;;1.38;;
59189;SDS011;50749;51.636;4.948;2023-02-28T01:09:14;1.75;;;1.02;;
59189;SDS011;50749;51.636;4.948;2023-02-28T01:11:40;2.30;;;1.00;;
59189;SDS011;50749;51.636;4.948;2023-02-28T01:14:07;1.92;;;1.25;;
59189;SDS011;50749;51.636;4.948;2023-02-28T01:16:34;2.75;;;1.00;;
59189;SDS011;50749;51.636;4.948;2023-02-28T01:18:59;1.67;;;0.82;;
59189;SDS011;50749;51.636;4.948;2023-02-28T01:21:25;1.90;;;1.08;;
59189;SDS011;50749;51.636;4.948;2023-02-28T01:23:51;2.67;;;1.20;;
59189;SDS011;50749;51.636;4.948;2023-02-28T01:26:18;2.65;;;1.00;;
59189;SDS011;50749;51.636;4.948;2023-02-28T01:28:47;2.47;;;1.20;;
59189;SDS011;50749;51.636;4.948;2023-02-28T01:31:13;2.22;;;0.88;;
59189;SDS011;50749;51.636;4.948;2023-02-28T01:33:39;1.25;;;0.80;;
59189;SDS011;50749;51.636;4.948;2023-02-28T01:36:06;1.92;;;1.00;;
59189;SDS011;50749;51.636;4.948;2023-02-28T01:38:36;2.60;;;1.20;;
59189;SDS011;50749;51.636;4.948;2023-02-28T01:41:02;1.90;;;1.00;;
59189;SDS011;50749;51.636;4.948;2023-02-28T01:43:29;2.65;;;0.93;;
59189;SDS011;50749;51.636;4.948;2023-02-28T01:45:58;1.38;;;0.90;;
59189;SDS011;50749;51.636;4.948;2023-02-28T01:48:26;1.15;;;0.70;;
59189;SDS011;50749;51.636;4.948;2023-02-28T01:50:55;2.42;;;1.23;;
59189;SDS011;50749;51.636;4.948;2023-02-28T01:53:27;2.35;;;1.00;;
59189;SDS011;50749;51.636;4.948;2023-02-28T01:55:57;2.10;;;0.95;;
59189;SDS011;50749;51.636;4.948;2023-02-28T01:58:23;1.30;;;0.75;;
59189;SDS011;50749;51.636;4.948;2023-02-28T02:00:49;2.67;;;1.35;;
59189;SDS011;50749;51.636;4.948;2023-02-28T02:03:16;1.90;;;0.90;;
59189;SDS011;50749;51.636;4.948;2023-02-28T02:05:45;1.73;;;1.00;;
59189;SDS011;50749;51.636;4.948;2023-02-28T02:08:23;2.72;;;1.00;;
59189;SDS011;50749;51.636;4.948;2023-02-28T02:10:55;3.47;;;1.08;;
59189;SDS011;50749;51.636;4.948;2023-02-28T02:24:22;2.75;;;1.17;;
59189;SDS011;50749;51.636;4.948;2023-02-28T02:27:23;2.50;;;1.02;;
59189;SDS011;50749;51.636;4.948;2023-02-28T02:36:18;1.73;;;1.10;;
59189;SDS011;50749;51.636;4.948;2023-02-28T02:44:02;1.67;;;0.93;;
59189;SDS011;50749;51.636;4.948;2023-02-28T02:46:38;2.33;;;0.88;;
59189;SDS011;50749;51.636;4.948;2023-02-28T02:49:09;2.83;;;0.93;;
59189;SDS011;50749;51.636;4.948;2023-02-28T02:51:41;1.00;;;0.73;;
59189;SDS011;50749;51.636;4.948;2023-02-28T02:56:44;1.58;;;1.00;;
59189;SDS011;50749;51.636;4.948;2023-02-28T02:59:14;1.92;;;0.85;;
59189;SDS011;50749;51.636;4.948;2023-02-28T03:01:54;2.03;;;1.00;;
59189;SDS011;50749;51.636;4.948;2023-02-28T03:04:23;1.33;;;0.70;;
59189;SDS011;50749;51.636;4.948;2023-02-28T03:06:53;1.40;;;0.90;;
59189;SDS011;50749;51.636;4.948;2023-02-28T03:09:22;1.58;;;0.73;;
59189;SDS011;50749;51.636;4.948;2023-02-28T03:11:49;1.58;;;0.82;;
59189;SDS011;50749;51.636;4.948;2023-02-28T03:19:38;1.00;;;0.70;;
59189;SDS011;50749;51.636;4.948;2023-02-28T03:30:49;1.63;;;0.68;;
59189;SDS011;50749;51.636;4.948;2023-02-28T03:33:21;1.38;;;0.90;;
59189;SDS011;50749;51.636;4.948;2023-02-28T03:35:54;1.17;;;0.80;;
59189;SDS011;50749;51.636;4.948;2023-02-28T03:38:31;1.50;;;0.93;;
59189;SDS011;50749;51.636;4.948;2023-02-28T03:41:06;2.08;;;1.10;;
59189;SDS011;50749;51.636;4.948;2023-02-28T03:43:34;1.63;;;0.90;;
59189;SDS011;50749;51.636;4.948;2023-02-28T03:46:04;1.90;;;1.00;;
59189;SDS011;50749;51.636;4.948;2023-02-28T03:48:40;1.55;;;0.77;;
59189;SDS011;50749;51.636;4.948;2023-02-28T03:51:15;1.75;;;0.68;;
59189;SDS011;50749;51.636;4.948;2023-02-28T03:54:17;1.27;;;0.80;;
59189;SDS011;50749;51.636;4.948;2023-02-28T03:56:40;2.03;;;1.00;;
59189;SDS011;50749;51.636;4.948;2023-02-28T03:59:25;1.50;;;0.82;;
59189;SDS011;50749;51.636;4.948;2023-02-28T04:01:55;1.20;;;0.90;;
59189;SDS011;50749;51.636;4.948;2023-02-28T04:04:23;2.53;;;0.82;;
59189;SDS011;50749;51.636;4.948;2023-02-28T04:06:50;1.30;;;0.90;;
59189;SDS011;50749;51.636;4.948;2023-02-28T04:09:17;1.77;;;1.00;;
59189;SDS011;50749;51.636;4.948;2023-02-28T04:11:45;1.15;;;0.70;;
59189;SDS011;50749;51.636;4.948;2023-02-28T04:14:17;1.33;;;0.55;;
59189;SDS011;50749;51.636;4.948;2023-02-28T04:16:43;1.05;;;0.60;;
59189;SDS011;50749;51.636;4.948;2023-02-28T04:19:10;1.58;;;0.70;;
59189;SDS011;50749;51.636;4.948;2023-02-28T04:21:38;1.65;;;0.75;;
59189;SDS011;50749;51.636;4.948;2023-02-28T04:24:11;1.20;;;0.63;;
59189;SDS011;50749;51.636;4.948;2023-02-28T04:26:42;2.55;;;0.93;;
59189;SDS011;50749;51.636;4.948;2023-02-28T04:29:11;1.45;;;0.70;;
59189;SDS011;50749;51.636;4.948;2023-02-28T04:31:38;1.20;;;0.70;;
59189;SDS011;50749;51.636;4.948;2023-02-28T04:34:05;0.80;;;0.40;;
59189;SDS011;50749;51.636;4.948;2023-02-28T04:36:31;1.10;;;0.60;;
59189;SDS011;50749;51.636;4.948;2023-02-28T04:38:57;1.00;;;0.52;;
59189;SDS011;50749;51.636;4.948;2023-02-28T04:41:23;1.25;;;0.63;;
59189;SDS011;50749;51.636;4.948;2023-02-28T04:43:51;1.08;;;0.60;;
59189;SDS011;50749;51.636;4.948;2023-02-28T04:46:17;1.13;;;0.50;;
59189;SDS011;50749;51.636;4.948;2023-02-28T04:48:44;1.33;;;0.70;;
59189;SDS011;50749;51.636;4.948;2023-02-28T04:51:10;0.80;;;0.73;;
59189;SDS011;50749;51.636;4.948;2023-02-28T04:53:39;0.60;;;0.50;;
59189;SDS011;50749;51.636;4.948;2023-02-28T04:56:06;0.95;;;0.60;;
59189;SDS011;50749;51.636;4.948;2023-02-28T04:58:33;1.85;;;0.90;;
59189;SDS011;50749;51.636;4.948;2023-02-28T05:01:06;1.10;;;0.55;;
59189;SDS011;50749;51.636;4.948;2023-02-28T05:03:53;1.40;;;0.80;;
59189;SDS011;50749;51.636;4.948;2023-02-28T05:06:20;1.05;;;0.70;;
59189;SDS011;50749;51.636;4.948;2023-02-28T05:08:49;1.55;;;0.70;;
59189;SDS011;50749;51.636;4.948;2023-02-28T05:11:16;1.35;;;0.70;;
59189;SDS011;50749;51.636;4.948;2023-02-28T05:13:49;0.98;;;0.50;;
59189;SDS011;50749;51.636;4.948;2023-02-28T05:16:15;0.88;;;0.55;;
59189;SDS011;50749;51.636;4.948;2023-02-28T05:18:42;2.28;;;0.50;;
59189;SDS011;50749;51.636;4.948;2023-02-28T05:21:23;1.00;;;0.60;;
59189;SDS011;50749;51.636;4.948;2023-02-28T05:23:54;1.52;;;0.60;;
59189;SDS011;50749;51.636;4.948;2023-02-28T05:26:21;1.73;;;0.50;;
59189;SDS011;50749;51.636;4.948;2023-02-28T05:28:47;1.38;;;0.80;;
59189;SDS011;50749;51.636;4.948;2023-02-28T05:31:13;1.25;;;0.57;;
59189;SDS011;50749;51.636;4.948;2023-02-28T05:33:39;1.13;;;0.60;;
59189;SDS011;50749;51.636;4.948;2023-02-28T05:36:05;1.20;;;0.77;;
59189;SDS011;50749;51.636;4.948;2023-02-28T05:38:32;1.85;;;0.65;;
59189;SDS011;50749;51.636;4.948;2023-02-28T05:40:57;5.53;;;0.60;;
59189;SDS011;50749;51.636;4.948;2023-02-28T05:43:24;3.22;;;0.80;;
59189;SDS011;50749;51.636;4.948;2023-02-28T05:45:50;1.40;;;0.55;;
59189;SDS011;50749;51.636;4.948;2023-02-28T05:48:16;2.10;;;0.95;;
59189;SDS011;50749;51.636;4.948;2023-02-28T05:50:43;8.90;;;1.73;;
59189;SDS011;50749;51.636;4.948;2023-02-28T05:53:11;18.02;;;3.28;;
59189;SDS011;50749;51.636;4.948;2023-02-28T05:55:37;8.20;;;2.17;;
59189;SDS011;50749;51.636;4.948;2023-02-28T05:58:03;7.88;;;1.85;;
59189;SDS011;50749;51.636;4.948;2023-02-28T06:00:29;6.55;;;1.58;;
59189;SDS011;50749;51.636;4.948;2023-02-28T06:02:55;6.05;;;1.55;;
59189;SDS011;50749;51.636;4.948;2023-02-28T06:05:26;5.45;;;1.63;;
59189;SDS011;50749;51.636;4.948;2023-02-28T06:07:53;3.83;;;1.55;;
59189;SDS011;50749;51.636;4.948;2023-02-28T06:10:19;10.75;;;1.90;;
59189;SDS011;50749;51.636;4.948;2023-02-28T06:12:45;3.20;;;1.35;;
59189;SDS011;50749;51.636;4.948;2023-02-28T06:15:11;6.68;;;1.67;;
59189;SDS011;50749;51.636;4.948;2023-02-28T06:17:39;4.75;;;1.33;;
59189;SDS011;50749;51.636;4.948;2023-02-28T06:20:06;6.20;;;1.55;;
59189;SDS011;50749;51.636;4.948;2023-02-28T06:22:34;6.85;;;1.90;;
59189;SDS011;50749;51.636;4.948;2023-02-28T06:25:01;4.43;;;1.52;;
59189;SDS011;50749;51.636;4.948;2023-02-28T06:27:27;3.97;;;1.40;;
59189;SDS011;50749;51.636;4.948;2023-02-28T06:29:53;4.40;;;1.38;;
59189;SDS011;50749;51.636;4.948;2023-02-28T06:32:21;7.57;;;1.73;;
59189;SDS011;50749;51.636;4.948;2023-02-28T06:34:47;3.40;;;1.73;;
59189;SDS011;50749;51.636;4.948;2023-02-28T06:37:13;5.72;;;1.77;;
59189;SDS011;50749;51.636;4.948;2023-02-28T06:39:39;4.40;;;1.58;;
59189;SDS011;50749;51.636;4.948;2023-02-28T06:42:05;3.17;;;1.73;;
59189;SDS011;50749;51.636;4.948;2023-02-28T06:44:31;2.83;;;1.38;;
59189;SDS011;50749;51.636;4.948;2023-02-28T06:47:04;3.28;;;1.23;;
59189;SDS011;50749;51.636;4.948;2023-02-28T06:49:31;5.25;;;1.00;;
59189;SDS011;50749;51.636;4.948;2023-02-28T06:51:59;2.80;;;1.27;;
59189;SDS011;50749;51.636;4.948;2023-02-28T06:54:25;4.57;;;1.50;;
59189;SDS011;50749;51.636;4.948;2023-02-28T06:56:51;2.53;;;1.10;;
59189;SDS011;50749;51.636;4.948;2023-02-28T06:59:18;9.73;;;1.58;;
59189;SDS011;50749;51.636;4.948;2023-02-28T07:01:44;2.15;;;1.10;;
59189;SDS011;50749;51.636;4.948;2023-02-28T07:04:10;2.67;;;1.08;;
59189;SDS011;50749;51.636;4.948;2023-02-28T07:06:36;2.90;;;1.10;;
59189;SDS011;50749;51.636;4.948;2023-02-28T07:09:02;2.15;;;0.90;;
59189;SDS011;50749;51.636;4.948;2023-02-28T07:11:29;2.05;;;0.98;;
59189;SDS011;50749;51.636;4.948;2023-02-28T07:13:55;3.90;;;1.38;;
59189;SDS011;50749;51.636;4.948;2023-02-28T07:16:22;5.75;;;1.45;;
59189;SDS011;50749;51.636;4.948;2023-02-28T07:18:49;2.95;;;1.10;;
59189;SDS011;50749;51.636;4.948;2023-02-28T07:21:17;4.25;;;1.30;;
59189;SDS011;50749;51.636;4.948;2023-02-28T07:23:43;2.65;;;1.17;;
59189;SDS011;50749;51.636;4.948;2023-02-28T07:26:11;2.10;;;0.90;;
59189;SDS011;50749;51.636;4.948;2023-02-28T07:28:40;2.42;;;1.00;;
59189;SDS011;50749;51.636;4.948;2023-02-28T07:31:08;2.58;;;1.30;;
59189;SDS011;50749;51.636;4.948;2023-02-28T07:33:34;2.20;;;1.08;;
59189;SDS011;50749;51.636;4.948;2023-02-28T07:36:05;2.25;;;1.10;;
59189;SDS011;50749;51.636;4.948;2023-02-28T07:38:41;4.25;;;1.25;;
59189;SDS011;50749;51.636;4.948;2023-02-28T07:41:08;2.67;;;1.33;;
59189;SDS011;50749;51.636;4.948;2023-02-28T07:43:34;3.45;;;0.73;;
59189;SDS011;50749;51.636;4.948;2023-02-28T07:46:02;3.20;;;1.00;;
59189;SDS011;50749;51.636;4.948;2023-02-28T07:48:29;4.05;;;1.13;;
59189;SDS011;50749;51.636;4.948;2023-02-28T07:50:56;3.65;;;1.10;;
59189;SDS011;50749;51.636;4.948;2023-02-28T07:53:22;2.22;;;0.90;;
59189;SDS011;50749;51.636;4.948;2023-02-28T07:55:48;3.92;;;1.10;;
59189;SDS011;50749;51.636;4.948;2023-02-28T07:58:14;2.35;;;0.85;;
59189;SDS011;50749;51.636;4.948;2023-02-28T08:00:40;2.13;;;1.20;;
59189;SDS011;50749;51.636;4.948;2023-02-28T08:03:06;1.73;;;0.77;;
59189;SDS011;50749;51.636;4.948;2023-02-28T08:05:37;3.83;;;1.30;;
59189;SDS011;50749;51.636;4.948;2023-02-28T08:08:06;2.47;;;1.10;;
59189;SDS011;50749;51.636;4.948;2023-02-28T08:10:33;2.58;;;1.00;;
59189;SDS011;50749;51.636;4.948;2023-02-28T08:12:59;2.70;;;0.80;;
59189;SDS011;50749;51.636;4.948;2023-02-28T08:15:25;2.90;;;1.08;;
59189;SDS011;50749;51.636;4.948;2023-02-28T08:17:51;2.10;;;0.82;;
59189;SDS011;50749;51.636;4.948;2023-02-28T08:20:17;2.70;;;0.98;;
59189;SDS011;50749;51.636;4.948;2023-02-28T08:22:43;3.38;;;1.10;;
59189;SDS011;50749;51.636;4.948;2023-02-28T08:25:09;1.83;;;1.00;;
59189;SDS011;50749;51.636;4.948;2023-02-28T08:27:35;1.80;;;0.98;;
59189;SDS011;50749;51.636;4.948;2023-02-28T08:30:01;3.22;;;1.08;;
59189;SDS011;50749;51.636;4.948;2023-02-28T08:32:28;2.58;;;1.30;;
59189;SDS011;50749;51.636;4.948;2023-02-28T08:34:54;1.65;;;0.85;;
59189;SDS011;50749;51.636;4.948;2023-02-28T08:37:20;1.73;;;0.70;;
59189;SDS011;50749;51.636;4.948;2023-02-28T08:39:46;2.47;;;0.90;;
59189;SDS011;50749;51.636;4.948;2023-02-28T08:42:12;1.95;;;0.82;;
59189;SDS011;50749;51.636;4.948;2023-02-28T08:44:38;2.78;;;1.30;;
59189;SDS011;50749;51.636;4.948;2023-02-28T08:47:04;2.55;;;1.10;;
59189;SDS011;50749;51.636;4.948;2023-02-28T08:49:30;2.15;;;1.05;;
59189;SDS011;50749;51.636;4.948;2023-02-28T08:51:56;3.75;;;1.00;;
59189;SDS011;50749;51.636;4.948;2023-02-28T08:54:23;1.80;;;0.75;;
59189;SDS011;50749;51.636;4.948;2023-02-28T08:56:49;4.25;;;1.20;;
59189;SDS011;50749;51.636;4.948;2023-02-28T08:59:15;1.90;;;0.63;;
59189;SDS011;50749;51.636;4.948;2023-02-28T09:01:41;2.50;;;0.90;;
59189;SDS011;50749;51.636;4.948;2023-02-28T09:04:09;5.20;;;1.20;;
59189;SDS011;50749;51.636;4.948;2023-02-28T09:06:36;3.83;;;1.77;;
59189;SDS011;50749;51.636;4.948;2023-02-28T09:09:03;0.52;;;0.52;;
59189;SDS011;50749;51.636;4.948;2023-02-28T09:11:31;1.30;;;0.90;;
59189;SDS011;50749;51.636;4.948;2023-02-28T09:13:58;1.52;;;0.70;;
59189;SDS011;50749;51.636;4.948;2023-02-28T09:16:28;1.50;;;0.70;;
59189;SDS011;50749;51.636;4.948;2023-02-28T09:18:56;0.85;;;0.60;;
59189;SDS011;50749;51.636;4.948;2023-02-28T09:21:22;1.40;;;0.60;;
59189;SDS011;50749;51.636;4.948;2023-02-28T09:23:48;1.98;;;1.08;;
59189;SDS011;50749;51.636;4.948;2023-02-28T09:26:20;3.03;;;0.70;;
59189;SDS011;50749;51.636;4.948;2023-02-28T09:28:51;2.53;;;1.00;;
59189;SDS011;50749;51.636;4.948;2023-02-28T09:31:19;1.13;;;0.68;;
59189;SDS011;50749;51.636;4.948;2023-02-28T09:33:51;2.22;;;0.75;;
59189;SDS011;50749;51.636;4.948;2023-02-28T09:36:18;1.17;;;0.70;;
59189;SDS011;50749;51.636;4.948;2023-02-28T09:38:44;1.92;;;0.90;;
59189;SDS011;50749;51.636;4.948;2023-02-28T09:41:13;1.20;;;0.60;;
59189;SDS011;50749;51.636;4.948;2023-02-28T09:43:49;1.23;;;0.60;;
59189;SDS011;50749;51.636;4.948;2023-02-28T09:46:25;1.63;;;0.60;;
59189;SDS011;50749;51.636;4.948;2023-02-28T09:48:55;0.93;;;0.50;;
59189;SDS011;50749;51.636;4.948;2023-02-28T09:53:53;1.60;;;0.60;;
59189;SDS011;50749;51.636;4.948;2023-02-28T09:56:35;1.85;;;0.50;;
59189;SDS011;50749;51.636;4.948;2023-02-28T10:04:59;1.35;;;0.70;;
59189;SDS011;50749;51.636;4.948;2023-02-28T10:10:22;0.93;;;0.50;;
59189;SDS011;50749;51.636;4.948;2023-02-28T10:12:54;0.70;;;0.50;;
59189;SDS011;50749;51.636;4.948;2023-02-28T10:15:24;0.88;;;0.60;;
59189;SDS011;50749;51.636;4.948;2023-02-28T10:17:54;0.82;;;0.60;;
59189;SDS011;50749;51.636;4.948;2023-02-28T10:20:24;0.68;;;0.50;;
59189;SDS011;50749;51.636;4.948;2023-02-28T10:23:17;1.50;;;0.60;;
59189;SDS011;50749;51.636;4.948;2023-02-28T10:26:19;0.95;;;0.50;;
59189;SDS011;50749;51.636;4.948;2023-02-28T10:28:41;1.63;;;0.73;;
59189;SDS011;50749;51.636;4.948;2023-02-28T10:31:11;0.95;;;0.57;;
59189;SDS011;50749;51.636;4.948;2023-02-28T10:33:43;1.08;;;0.63;;
59189;SDS011;50749;51.636;4.948;2023-02-28T10:36:13;1.23;;;0.65;;
59189;SDS011;50749;51.636;4.948;2023-02-28T10:38:42;1.40;;;0.60;;
59189;SDS011;50749;51.636;4.948;2023-02-28T10:43:42;0.77;;;0.50;;
59189;SDS011;50749;51.636;4.948;2023-02-28T10:48:40;0.77;;;0.52;;
59189;SDS011;50749;51.636;4.948;2023-02-28T10:51:25;1.17;;;0.50;;
59189;SDS011;50749;51.636;4.948;2023-02-28T10:53:59;0.82;;;0.52;;
59189;SDS011;50749;51.636;4.948;2023-02-28T10:56:25;1.15;;;0.60;;
59189;SDS011;50749;51.636;4.948;2023-02-28T10:59:03;1.48;;;0.70;;
59189;SDS011;50749;51.636;4.948;2023-02-28T11:01:52;2.17;;;0.60;;
59189;SDS011;50749;51.636;4.948;2023-02-28T11:04:19;1.08;;;0.63;;
59189;SDS011;50749;51.636;4.948;2023-02-28T11:06:47;1.67;;;0.52;;
59189;SDS011;50749;51.636;4.948;2023-02-28T11:12:07;1.02;;;0.65;;
59189;SDS011;50749;51.636;4.948;2023-02-28T11:14:48;1.10;;;0.60;;
59189;SDS011;50749;51.636;4.948;2023-02-28T11:17:21;0.93;;;0.50;;
59189;SDS011;50749;51.636;4.948;2023-02-28T11:20:01;1.13;;;0.70;;
59189;SDS011;50749;51.636;4.948;2023-02-28T11:22:34;0.95;;;0.60;;
59189;SDS011;50749;51.636;4.948;2023-02-28T11:25:08;1.00;;;0.50;;
59189;SDS011;50749;51.636;4.948;2023-02-28T11:27:52;0.73;;;0.40;;
59189;SDS011;50749;51.636;4.948;2023-02-28T11:30:23;1.13;;;0.60;;
59189;SDS011;50749;51.636;4.948;2023-02-28T11:32:53;0.88;;;0.40;;
59189;SDS011;50749;51.636;4.948;2023-02-28T11:35:40;1.15;;;0.50;;
59189;SDS011;50749;51.636;4.948;2023-02-28T11:38:07;1.55;;;0.60;;
59189;SDS011;50749;51.636;4.948;2023-02-28T11:52:02;0.50;;;0.40;;
59189;SDS011;50749;51.636;4.948;2023-02-28T12:05:29;0.70;;;0.50;;
59189;SDS011;50749;51.636;4.948;2023-02-28T12:13:29;1.73;;;0.70;;
59189;SDS011;50749;51.636;4.948;2023-02-28T12:16:14;1.20;;;0.60;;
59189;SDS011;50749;51.636;4.948;2023-02-28T12:27:09;1.85;;;0.57;;
59189;SDS011;50749;51.636;4.948;2023-02-28T12:29:44;0.98;;;0.50;;
59189;SDS011;50749;51.636;4.948;2023-02-28T12:34:46;0.82;;;0.60;;
59189;SDS011;50749;51.636;4.948;2023-02-28T12:37:17;0.60;;;0.50;;
59189;SDS011;50749;51.636;4.948;2023-02-28T12:39:50;0.80;;;0.60;;
59189;SDS011;50749;51.636;4.948;2023-02-28T12:45:02;1.10;;;0.68;;
59189;SDS011;50749;51.636;4.948;2023-02-28T12:47:36;0.77;;;0.47;;
59189;SDS011;50749;51.636;4.948;2023-02-28T12:50:06;1.23;;;0.40;;
59189;SDS011;50749;51.636;4.948;2023-02-28T13:00:55;1.80;;;0.60;;
59189;SDS011;50749;51.636;4.948;2023-02-28T13:09:09;1.27;;;0.50;;
59189;SDS011;50749;51.636;4.948;2023-02-28T13:11:39;0.93;;;0.63;;
59189;SDS011;50749;51.636;4.948;2023-02-28T13:19:20;0.90;;;0.70;;
59189;SDS011;50749;51.636;4.948;2023-02-28T13:21:49;1.10;;;0.70;;
59189;SDS011;50749;51.636;4.948;2023-02-28T13:24:38;0.70;;;0.40;;
59189;SDS011;50749;51.636;4.948;2023-02-28T13:29:35;0.63;;;0.40;;
59189;SDS011;50749;51.636;4.948;2023-02-28T13:34:33;0.65;;;0.43;;
59189;SDS011;50749;51.636;4.948;2023-02-28T13:39:50;1.07;;;0.60;;
59189;SDS011;50749;51.636;4.948;2023-02-28T14:07:19;1.58;;;0.50;;
59189;SDS011;50749;51.636;4.948;2023-02-28T14:09:56;1.58;;;0.47;;
59189;SDS011;50749;51.636;4.948;2023-02-28T14:20:47;0.43;;;0.35;;
59189;SDS011;50749;51.636;4.948;2023-02-28T14:31:18;1.20;;;0.50;;
59189;SDS011;50749;51.636;4.948;2023-02-28T14:36:35;0.60;;;0.40;;
59189;SDS011;50749;51.636;4.948;2023-02-28T14:39:12;1.85;;;0.60;;
59189;SDS011;50749;51.636;4.948;2023-02-28T14:41:41;1.15;;;0.50;;
59189;SDS011;50749;51.636;4.948;2023-02-28T14:46:43;0.57;;;0.40;;
59189;SDS011;50749;51.636;4.948;2023-02-28T14:54:44;0.93;;;0.50;;
59189;SDS011;50749;51.636;4.948;2023-02-28T14:57:25;1.15;;;0.50;;
59189;SDS011;50749;51.636;4.948;2023-02-28T14:59:59;2.42;;;0.70;;
59189;SDS011;50749;51.636;4.948;2023-02-28T15:02:26;1.30;;;1.02;;
59189;SDS011;50749;51.636;4.948;2023-02-28T15:04:58;1.15;;;0.55;;
59189;SDS011;50749;51.636;4.948;2023-02-28T15:07:25;1.85;;;0.50;;
59189;SDS011;50749;51.636;4.948;2023-02-28T15:13:10;0.85;;;0.55;;
59189;SDS011;50749;51.636;4.948;2023-02-28T15:16:13;0.90;;;0.55;;
59189;SDS011;50749;51.636;4.948;2023-02-28T15:18:52;1.27;;;0.63;;
59189;SDS011;50749;51.636;4.948;2023-02-28T15:21:22;0.40;;;0.40;;
59189;SDS011;50749;51.636;4.948;2023-02-28T15:23:54;0.38;;;0.30;;
59189;SDS011;50749;51.636;4.948;2023-02-28T15:26:29;1.55;;;0.52;;
59189;SDS011;50749;51.636;4.948;2023-02-28T15:29:08;1.02;;;0.60;;
59189;SDS011;50749;51.636;4.948;2023-02-28T15:31:40;1.42;;;0.68;;
59189;SDS011;50749;51.636;4.948;2023-02-28T15:34:17;0.70;;;0.40;;
59189;SDS011;50749;51.636;4.948;2023-02-28T15:36:46;0.88;;;0.50;;
59189;SDS011;50749;51.636;4.948;2023-02-28T15:39:26;1.17;;;0.55;;
59189;SDS011;50749;51.636;4.948;2023-02-28T15:42:12;1.10;;;0.57;;
59189;SDS011;50749;51.636;4.948;2023-02-28T15:44:43;0.80;;;0.50;;
59189;SDS011;50749;51.636;4.948;2023-02-28T15:49:49;1.55;;;0.68;;
59189;SDS011;50749;51.636;4.948;2023-02-28T15:52:19;0.43;;;0.40;;
59189;SDS011;50749;51.636;4.948;2023-02-28T15:54:56;1.10;;;0.60;;
59189;SDS011;50749;51.636;4.948;2023-02-28T15:57:24;1.00;;;0.55;;
59189;SDS011;50749;51.636;4.948;2023-02-28T15:59:56;0.90;;;0.50;;
59189;SDS011;50749;51.636;4.948;2023-02-28T16:02:33;4.38;;;0.60;;
59189;SDS011;50749;51.636;4.948;2023-02-28T16:07:31;1.48;;;0.40;;
59189;SDS011;50749;51.636;4.948;2023-02-28T16:09:58;1.10;;;0.43;;
59189;SDS011;50749;51.636;4.948;2023-02-28T16:12:28;1.20;;;0.40;;
59189;SDS011;50749;51.636;4.948;2023-02-28T16:15:00;1.60;;;0.50;;
59189;SDS011;50749;51.636;4.948;2023-02-28T16:17:34;1.48;;;0.40;;
59189;SDS011;50749;51.636;4.948;2023-02-28T16:20:11;2.15;;;0.40;;
59189;SDS011;50749;51.636;4.948;2023-02-28T16:22:39;0.73;;;0.57;;
59189;SDS011;50749;51.636;4.948;2023-02-28T16:25:08;0.77;;;0.47;;
59189;SDS011;50749;51.636;4.948;2023-02-28T16:27:38;0.70;;;0.47;;
59189;SDS011;50749;51.636;4.948;2023-02-28T16:30:04;1.08;;;0.50;;
59189;SDS011;50749;51.636;4.948;2023-02-28T16:32:32;3.63;;;0.45;;
59189;SDS011;50749;51.636;4.948;2023-02-28T16:35:01;2.15;;;0.60;;
59189;SDS011;50749;51.636;4.948;2023-02-28T16:37:28;2.22;;;0.50;;
59189;SDS011;50749;51.636;4.948;2023-02-28T16:39:54;0.73;;;0.30;;
59189;SDS011;50749;51.636;4.948;2023-02-28T16:42:24;4.65;;;0.70;;
59189;SDS011;50749;51.636;4.948;2023-02-28T16:44:52;1.73;;;0.45;;
59189;SDS011;50749;51.636;4.948;2023-02-28T16:47:19;0.93;;;0.40;;
59189;SDS011;50749;51.636;4.948;2023-02-28T16:49:45;0.90;;;0.50;;
59189;SDS011;50749;51.636;4.948;2023-02-28T16:52:13;3.92;;;0.40;;
59189;SDS011;50749;51.636;4.948;2023-02-28T16:54:39;1.67;;;0.55;;
59189;SDS011;50749;51.636;4.948;2023-02-28T16:57:08;0.80;;;0.40;;
59189;SDS011;50749;51.636;4.948;2023-02-28T16:59:44;3.25;;;1.42;;
59189;SDS011;50749;51.636;4.948;2023-02-28T17:02:12;3.42;;;0.40;;
59189;SDS011;50749;51.636;4.948;2023-02-28T17:04:40;2.10;;;0.70;;
59189;SDS011;50749;51.636;4.948;2023-02-28T17:07:10;1.75;;;0.47;;
59189;SDS011;50749;51.636;4.948;2023-02-28T17:09:37;0.45;;;0.40;;
59189;SDS011;50749;51.636;4.948;2023-02-28T17:12:03;0.55;;;0.40;;
59189;SDS011;50749;51.636;4.948;2023-02-28T17:14:29;1.63;;;0.50;;
59189;SDS011;50749;51.636;4.948;2023-02-28T17:16:55;1.90;;;0.52;;
59189;SDS011;50749;51.636;4.948;2023-02-28T17:19:21;2.22;;;1.15;;
59189;SDS011;50749;51.636;4.948;2023-02-28T17:21:47;2.58;;;0.60;;
59189;SDS011;50749;51.636;4.948;2023-02-28T17:24:13;4.05;;;0.50;;
59189;SDS011;50749;51.636;4.948;2023-02-28T17:26:39;2.53;;;0.70;;
59189;SDS011;50749;51.636;4.948;2023-02-28T17:29:11;3.28;;;0.50;;
59189;SDS011;50749;51.636;4.948;2023-02-28T17:31:41;0.68;;;0.40;;
59189;SDS011;50749;51.636;4.948;2023-02-28T17:34:07;2.08;;;0.70;;
59189;SDS011;50749;51.636;4.948;2023-02-28T17:36:34;1.33;;;0.43;;
59189;SDS011;50749;51.636;4.948;2023-02-28T17:39:02;0.95;;;0.80;;
59189;SDS011;50749;51.636;4.948;2023-02-28T17:41:34;0.47;;;0.30;;
59189;SDS011;50749;51.636;4.948;2023-02-28T17:44:00;0.55;;;0.35;;
59189;SDS011;50749;51.636;4.948;2023-02-28T17:46:26;0.70;;;0.32;;
59189;SDS011;50749;51.636;4.948;2023-02-28T17:48:53;2.33;;;0.50;;
59189;SDS011;50749;51.636;4.948;2023-02-28T17:51:20;3.25;;;0.98;;
59189;SDS011;50749;51.636;4.948;2023-02-28T17:53:48;5.97;;;0.80;;
59189;SDS011;50749;51.636;4.948;2023-02-28T17:56:21;4.10;;;0.88;;
59189;SDS011;50749;51.636;4.948;2023-02-28T17:58:48;10.07;;;1.33;;
59189;SDS011;50749;51.636;4.948;2023-02-28T18:01:15;8.38;;;1.30;;
59189;SDS011;50749;51.636;4.948;2023-02-28T18:03:41;2.97;;;1.20;;
59189;SDS011;50749;51.636;4.948;2023-02-28T18:06:11;4.97;;;1.10;;
59189;SDS011;50749;51.636;4.948;2023-02-28T18:08:44;7.90;;;1.33;;